Time;durP1;ratioP1;P1;durP2;ratioP2;P2;SDS_P1;SDS_P2;PMS_P1;PMS_P2;Temp;Humidity;BMP_temperature;BMP_pressure;BME280_temperature;BME280_humidity;BME280_pressure;Samples;Min_cycle;Max_cycle;Signal;HPM_P1;HPM_P2
2022/09/02 00:00:00;;;;;;;0.50;0.50;;;15.50;99.90;;;;;;5027960;28;20433;-63
2022/09/02 00:02:30;;;;;;;0.90;0.50;;;15.50;99.90;;;;;;5023372;28;20435;-62
2022/09/02 00:04:57;;;;;;;0.57;0.57;;;15.50;99.90;;;;;;5024581;28;20435;-63
2022/09/02 00:07:23;;;;;;;0.40;0.40;;;15.60;99.90;;;;;;5025927;28;20522;-63
2022/09/02 00:09:50;;;;;;;0.63;0.63;;;15.70;99.90;;;;;;5026591;28;20445;-63
2022/09/02 00:12:17;;;;;;;0.40;0.40;;;15.70;99.90;;;;;;5029087;28;20441;-63
2022/09/02 00:14:44;;;;;;;0.50;0.50;;;15.70;99.90;;;;;;5026659;28;20431;-63
2022/09/02 00:17:10;;;;;;;0.45;0.45;;;15.70;99.90;;;;;;5026621;28;20930;-63
2022/09/02 00:19:37;;;;;;;0.50;0.50;;;15.70;99.90;;;;;;5024594;28;20424;-63
2022/09/02 00:22:04;;;;;;;0.50;0.50;;;15.70;99.90;;;;;;5021657;28;20433;-62
2022/09/02 00:24:31;;;;;;;0.40;0.40;;;15.70;99.90;;;;;;5021411;28;20431;-62
2022/09/02 00:26:58;;;;;;;0.50;0.50;;;15.80;99.90;;;;;;5020781;28;21618;-62
2022/09/02 00:29:26;;;;;;;0.57;0.47;;;15.80;99.90;;;;;;5030394;28;20437;-62
2022/09/02 00:31:53;;;;;;;0.60;0.50;;;15.90;99.90;;;;;;5010104;28;20444;-62
2022/09/02 00:34:24;;;;;;;0.90;0.55;;;15.90;99.90;;;;;;5025655;28;20434;-62
2022/09/02 00:36:51;;;;;;;0.65;0.65;;;16.00;99.90;;;;;;5022248;28;20441;-62
2022/09/02 00:39:19;;;;;;;0.53;0.53;;;15.90;99.90;;;;;;5029101;28;20503;-62
2022/09/02 00:41:49;;;;;;;0.47;0.47;;;15.90;99.90;;;;;;5012914;28;20439;-62
2022/09/02 00:44:17;;;;;;;0.40;0.40;;;15.90;99.90;;;;;;5023770;28;20466;-62
2022/09/02 00:46:45;;;;;;;0.80;0.50;;;15.80;99.90;;;;;;5024237;28;20433;-62
2022/09/02 00:49:39;;;;;;;1.27;0.60;;;15.70;99.90;;;;;;5027090;28;20437;-62
2022/09/02 00:52:18;;;;;;;0.75;0.75;;;15.60;99.90;;;;;;5028329;28;20488;-63
2022/09/02 00:54:57;;;;;;;0.50;0.50;;;15.50;99.90;;;;;;5025831;28;21092;-62
2022/09/02 00:57:32;;;;;;;0.60;0.60;;;15.50;99.90;;;;;;5028436;28;20518;-62
2022/09/02 01:00:16;;;;;;;0.50;0.50;;;15.50;99.90;;;;;;5017145;28;20477;-62
2022/09/02 01:02:48;;;;;;;0.50;0.50;;;15.50;99.90;;;;;;5021679;28;20431;-62
2022/09/02 01:05:17;;;;;;;0.68;0.60;;;15.40;99.90;;;;;;5024593;28;20435;-62
2022/09/02 01:07:44;;;;;;;0.60;0.50;;;15.40;99.90;;;;;;5026171;28;20431;-62
2022/09/02 01:10:16;;;;;;;0.70;0.70;;;15.40;99.90;;;;;;5024161;28;20517;-62
2022/09/02 01:12:43;;;;;;;0.50;0.50;;;15.30;99.90;;;;;;5039345;28;20534;-62
2022/09/02 01:15:12;;;;;;;0.40;0.40;;;15.30;99.90;;;;;;5023163;28;20443;-62
2022/09/02 01:17:46;;;;;;;0.40;0.40;;;15.30;99.90;;;;;;5027828;28;20449;-62
2022/09/02 01:20:17;;;;;;;1.70;0.63;;;15.30;99.90;;;;;;5017134;28;20965;-62
2022/09/02 01:22:47;;;;;;;0.60;0.60;;;15.30;99.90;;;;;;5020388;28;20440;-62
2022/09/02 01:25:21;;;;;;;0.55;0.55;;;15.30;99.90;;;;;;5023777;28;21026;-62
2022/09/02 01:27:49;;;;;;;0.50;0.50;;;15.30;99.90;;;;;;5034705;28;20435;-62
2022/09/02 01:30:23;;;;;;;0.80;0.70;;;15.40;99.90;;;;;;5028590;28;20434;-62
2022/09/02 01:32:50;;;;;;;0.60;0.60;;;15.40;99.90;;;;;;5025354;28;20441;-62
2022/09/02 01:35:20;;;;;;;0.43;0.43;;;15.40;99.90;;;;;;5023654;28;20430;-62
2022/09/02 01:37:47;;;;;;;0.40;0.40;;;15.40;99.90;;;;;;5019815;28;20439;-62
2022/09/02 01:40:23;;;;;;;0.50;0.50;;;15.50;99.90;;;;;;5026111;28;20431;-62
2022/09/02 01:42:57;;;;;;;0.63;0.63;;;15.50;99.90;;;;;;5026275;28;20504;-62
2022/09/02 01:45:24;;;;;;;0.60;0.60;;;15.50;99.90;;;;;;5029081;28;20852;-62
2022/09/02 01:47:51;;;;;;;0.40;0.40;;;15.50;99.90;;;;;;5024662;28;20480;-61
2022/09/02 01:50:18;;;;;;;0.60;0.50;;;15.60;99.90;;;;;;5023634;28;20525;-62
2022/09/02 01:52:45;;;;;;;0.80;0.50;;;15.60;99.90;;;;;;5021037;28;20430;-63
2022/09/02 01:55:13;;;;;;;0.60;0.60;;;15.50;99.90;;;;;;5021536;28;20525;-62
2022/09/02 01:57:40;;;;;;;0.50;0.50;;;15.60;99.90;;;;;;5023340;28;20438;-62
2022/09/02 02:00:10;;;;;;;0.50;0.50;;;15.50;99.90;;;;;;5021671;28;20429;-62
2022/09/02 02:02:38;;;;;;;0.50;0.50;;;15.50;99.90;;;;;;5012411;28;20444;-62
2022/09/02 02:05:09;;;;;;;0.45;0.40;;;15.40;99.90;;;;;;5021013;28;20470;-62
2022/09/02 02:07:36;;;;;;;0.47;0.47;;;15.40;99.90;;;;;;5024103;28;20432;-62
2022/09/02 02:10:04;;;;;;;0.50;0.50;;;15.40;99.90;;;;;;5016833;28;20783;-62
2022/09/02 02:12:31;;;;;;;0.77;0.68;;;15.30;99.90;;;;;;5022753;28;20926;-61
2022/09/02 02:15:01;;;;;;;0.43;0.43;;;15.30;99.90;;;;;;5026540;28;20427;-62
2022/09/02 02:17:28;;;;;;;0.40;0.40;;;15.30;99.90;;;;;;5023281;28;20550;-62
2022/09/02 02:19:55;;;;;;;0.50;0.50;;;15.20;99.90;;;;;;5025228;28;20430;-62
2022/09/02 02:22:22;;;;;;;0.40;0.40;;;15.10;99.90;;;;;;5020298;28;20435;-62
2022/09/02 02:24:49;;;;;;;0.50;0.50;;;14.90;99.90;;;;;;5023511;28;20439;-62
2022/09/02 02:27:16;;;;;;;0.43;0.43;;;14.90;99.90;;;;;;5018151;28;20491;-62
2022/09/02 02:29:45;;;;;;;0.50;0.50;;;14.80;99.90;;;;;;5021159;28;20438;-62
2022/09/02 02:32:12;;;;;;;0.53;0.50;;;14.60;99.90;;;;;;5025438;28;20459;-62
2022/09/02 02:34:39;;;;;;;0.43;0.43;;;14.60;99.90;;;;;;5025106;28;20500;-62
2022/09/02 02:37:13;;;;;;;0.52;0.52;;;14.50;99.90;;;;;;5016695;28;20511;-62
2022/09/02 02:39:41;;;;;;;0.57;0.57;;;14.40;99.90;;;;;;5026958;28;20521;-62
2022/09/02 02:42:12;;;;;;;0.50;0.50;;;14.40;99.90;;;;;;5021368;28;20426;-61
2022/09/02 02:44:39;;;;;;;0.40;0.40;;;14.30;99.90;;;;;;5023241;28;20437;-61
2022/09/02 02:47:09;;;;;;;0.47;0.47;;;14.30;99.90;;;;;;5024561;28;20431;-62
2022/09/02 02:49:38;;;;;;;0.57;0.57;;;14.30;99.90;;;;;;5017469;28;20434;-62
2022/09/02 02:52:05;;;;;;;0.40;0.40;;;14.20;99.90;;;;;;5021817;28;20430;-62
2022/09/02 02:54:35;;;;;;;0.43;0.43;;;14.10;99.90;;;;;;5025645;28;20546;-62
2022/09/02 02:57:03;;;;;;;0.40;0.40;;;14.00;99.90;;;;;;5019637;28;20522;-62
2022/09/02 02:59:32;;;;;;;0.50;0.50;;;13.90;99.90;;;;;;5020180;28;20441;-62
2022/09/02 03:02:02;;;;;;;0.57;0.57;;;13.90;99.90;;;;;;5023886;28;20820;-62
2022/09/02 03:04:29;;;;;;;1.08;0.77;;;13.80;99.90;;;;;;5023486;28;20434;-62
2022/09/02 03:06:56;;;;;;;0.40;0.40;;;13.80;99.90;;;;;;5025883;28;20442;-62
2022/09/02 03:09:26;;;;;;;0.60;0.60;;;13.70;99.90;;;;;;5020461;28;20467;-62
2022/09/02 03:11:52;;;;;;;0.60;0.60;;;13.70;99.90;;;;;;5020717;28;20897;-61
2022/09/02 03:14:19;;;;;;;2.20;0.60;;;13.60;99.90;;;;;;5016986;28;20438;-62
2022/09/02 03:16:49;;;;;;;0.60;0.60;;;13.60;99.90;;;;;;5023072;28;20422;-62
2022/09/02 03:19:15;;;;;;;0.60;0.60;;;13.50;99.90;;;;;;5025343;28;20858;-62
2022/09/02 03:21:42;;;;;;;0.40;0.40;;;13.40;99.90;;;;;;5019461;28;20429;-62
2022/09/02 03:24:10;;;;;;;0.40;0.40;;;13.40;99.90;;;;;;5022249;28;20522;-62
2022/09/02 03:26:40;;;;;;;0.50;0.50;;;13.40;99.90;;;;;;5022914;28;20450;-61
2022/09/02 03:29:07;;;;;;;0.50;0.50;;;13.40;99.90;;;;;;5021600;28;20509;-61
2022/09/02 03:31:34;;;;;;;0.50;0.43;;;13.40;99.90;;;;;;5019685;28;20434;-61
2022/09/02 03:34:04;;;;;;;0.53;0.53;;;13.40;99.90;;;;;;5019918;28;20480;-62
2022/09/02 03:36:35;;;;;;;0.47;0.47;;;13.50;99.90;;;;;;5026528;28;20517;-61
2022/09/02 03:39:06;;;;;;;0.70;0.70;;;13.50;99.90;;;;;;5023590;28;20466;-61
2022/09/02 03:41:36;;;;;;;0.50;0.50;;;13.40;99.90;;;;;;5019514;28;20431;-61
2022/09/02 03:44:03;;;;;;;0.50;0.50;;;13.40;99.90;;;;;;5024163;28;20939;-62
2022/09/02 03:46:32;;;;;;;0.47;0.47;;;13.40;99.90;;;;;;5021640;28;20466;-61
2022/09/02 03:48:59;;;;;;;0.55;0.55;;;13.50;99.90;;;;;;5021568;28;20850;-62
2022/09/02 03:51:27;;;;;;;0.50;0.50;;;13.50;99.90;;;;;;5017589;28;20470;-62
2022/09/02 03:53:54;;;;;;;0.60;0.60;;;13.40;99.90;;;;;;5024477;28;20526;-62
2022/09/02 03:56:24;;;;;;;0.35;0.35;;;13.40;99.90;;;;;;5029519;28;20485;-61
2022/09/02 03:58:51;;;;;;;0.50;0.50;;;13.40;99.90;;;;;;5027998;28;21159;-62
2022/09/02 04:01:21;;;;;;;0.90;0.77;;;13.50;99.90;;;;;;5024438;28;20477;-61
2022/09/02 04:03:49;;;;;;;0.57;0.40;;;13.50;99.90;;;;;;5025860;28;20441;-62
2022/09/02 04:06:18;;;;;;;0.40;0.40;;;13.50;99.90;;;;;;5021276;28;20474;-62
2022/09/02 04:08:47;;;;;;;0.80;0.80;;;13.50;99.90;;;;;;5030409;28;20438;-63
2022/09/02 04:11:17;;;;;;;0.40;0.40;;;13.60;99.90;;;;;;5023182;28;20811;-62
2022/09/02 04:13:47;;;;;;;0.40;0.40;;;13.60;99.90;;;;;;5024113;28;20989;-61
2022/09/02 04:16:17;;;;;;;0.38;0.38;;;13.50;99.90;;;;;;5031170;28;20458;-62
2022/09/02 04:18:44;;;;;;;0.50;0.50;;;13.50;99.90;;;;;;5023361;28;20431;-62
2022/09/02 04:21:12;;;;;;;0.82;0.57;;;13.40;99.90;;;;;;5027222;28;20520;-61
2022/09/02 04:23:39;;;;;;;0.40;0.40;;;13.40;99.90;;;;;;5018053;28;20442;-62
2022/09/02 04:26:09;;;;;;;0.53;0.53;;;13.30;99.90;;;;;;5030797;28;20429;-62
2022/09/02 04:28:37;;;;;;;0.75;0.55;;;13.30;99.90;;;;;;5025087;28;20510;-62
2022/09/02 04:31:06;;;;;;;0.40;0.40;;;13.30;99.90;;;;;;5025117;28;20434;-62
2022/09/02 04:33:39;;;;;;;1.17;0.50;;;13.30;99.90;;;;;;5029425;28;20490;-61
2022/09/02 04:36:09;;;;;;;0.60;0.60;;;13.30;99.90;;;;;;5016982;28;20429;-62
2022/09/02 04:38:38;;;;;;;0.50;0.50;;;13.40;99.90;;;;;;5022774;28;20431;-62
2022/09/02 04:41:11;;;;;;;0.50;0.50;;;13.40;99.90;;;;;;5027313;28;20441;-62
2022/09/02 04:43:38;;;;;;;0.47;0.47;;;13.40;99.90;;;;;;5023347;28;20581;-62
2022/09/02 04:46:07;;;;;;;0.50;0.50;;;13.50;99.90;;;;;;5022072;28;20442;-62
2022/09/02 04:48:35;;;;;;;0.50;0.50;;;13.50;99.90;;;;;;5031920;28;20454;-62
2022/09/02 04:51:14;;;;;;;0.60;0.60;;;13.50;99.90;;;;;;5028110;28;20445;-62
2022/09/02 04:53:44;;;;;;;0.30;0.30;;;13.50;99.90;;;;;;5018254;28;20473;-62
2022/09/02 04:56:14;;;;;;;0.40;0.40;;;13.60;99.90;;;;;;5014475;28;20423;-62
2022/09/02 04:58:43;;;;;;;1.13;1.02;;;13.60;99.90;;;;;;5028862;28;20929;-62
2022/09/02 05:01:19;;;;;;;0.40;0.40;;;13.70;99.90;;;;;;5016969;28;20524;-61
2022/09/02 05:03:50;;;;;;;1.50;0.40;;;13.80;99.90;;;;;;5017424;28;20496;-62
2022/09/02 05:06:20;;;;;;;0.35;0.35;;;14.00;99.90;;;;;;5025946;28;20516;-61
2022/09/02 05:08:49;;;;;;;1.20;0.70;;;14.10;99.90;;;;;;5022318;28;20427;-61
2022/09/02 05:11:19;;;;;;;0.50;0.40;;;14.20;99.90;;;;;;5027842;28;20458;-62
2022/09/02 05:13:50;;;;;;;0.50;0.50;;;14.30;99.90;;;;;;5016724;28;20518;-61
2022/09/02 05:16:20;;;;;;;0.43;0.43;;;14.30;99.90;;;;;;5025232;28;20807;-61
2022/09/02 05:18:50;;;;;;;0.63;0.63;;;14.40;99.90;;;;;;5019366;28;20437;-61
2022/09/02 05:21:18;;;;;;;0.57;0.57;;;14.50;99.90;;;;;;5040994;28;20463;-61
2022/09/02 05:23:45;;;;;;;0.35;0.35;;;14.60;99.90;;;;;;5022089;28;20444;-61
2022/09/02 05:26:12;;;;;;;0.57;0.57;;;14.60;99.90;;;;;;5020537;28;20438;-61
2022/09/02 05:28:40;;;;;;;0.57;0.57;;;14.60;99.90;;;;;;5021832;28;20524;-61
2022/09/02 05:31:11;;;;;;;0.50;0.50;;;14.70;99.90;;;;;;5021472;28;20944;-62
2022/09/02 05:33:40;;;;;;;0.55;0.55;;;14.80;99.90;;;;;;5017553;28;20789;-62
2022/09/02 05:36:15;;;;;;;0.68;0.68;;;14.90;99.90;;;;;;5023438;28;20468;-62
2022/09/02 05:38:43;;;;;;;0.70;0.70;;;15.10;99.90;;;;;;5022396;28;20439;-61
2022/09/02 05:41:14;;;;;;;0.50;0.50;;;15.10;99.90;;;;;;5021148;28;20446;-62
2022/09/02 05:43:43;;;;;;;0.52;0.52;;;15.20;99.90;;;;;;5021289;28;20457;-61
2022/09/02 05:46:13;;;;;;;0.50;0.50;;;15.40;99.90;;;;;;5020160;28;20433;-62
2022/09/02 05:51:25;;;;;;;0.30;0.30;;;15.50;99.90;;;;;;5026711;28;20440;-62
2022/09/02 05:53:58;;;;;;;0.30;0.30;;;15.60;99.90;;;;;;5025077;28;20438;-61
2022/09/02 05:56:26;;;;;;;0.20;0.20;;;15.70;99.90;;;;;;5025831;28;20466;-62
2022/09/02 05:58:56;;;;;;;0.47;0.47;;;15.70;99.90;;;;;;5024929;28;20429;-62
2022/09/02 06:01:23;;;;;;;2.80;0.60;;;15.60;99.90;;;;;;5017955;28;20466;-62
2022/09/02 06:03:51;;;;;;;1.20;0.55;;;15.60;99.90;;;;;;5026371;28;20523;-61
2022/09/02 06:06:22;;;;;;;0.55;0.55;;;15.60;99.90;;;;;;5022860;28;21009;-62
2022/09/02 06:08:55;;;;;;;0.50;0.50;;;15.60;99.90;;;;;;5025364;28;20510;-62
2022/09/02 06:11:22;;;;;;;0.40;0.40;;;15.60;99.90;;;;;;5025139;28;20518;-62
2022/09/02 06:13:48;;;;;;;0.60;0.60;;;15.50;99.90;;;;;;5025751;28;20445;-62
2022/09/02 06:16:18;;;;;;;0.40;0.40;;;15.40;99.90;;;;;;5023316;28;20441;-62
2022/09/02 06:18:48;;;;;;;0.40;0.40;;;15.40;99.90;;;;;;5024252;28;20479;-62
2022/09/02 06:21:19;;;;;;;0.40;0.40;;;15.50;99.90;;;;;;5026101;28;20433;-62
2022/09/02 06:23:46;;;;;;;0.40;0.40;;;15.50;99.90;;;;;;5020366;28;20517;-61
2022/09/02 06:26:16;;;;;;;0.82;0.52;;;15.70;99.90;;;;;;5022540;28;20440;-62
2022/09/02 06:28:43;;;;;;;0.50;0.50;;;15.80;99.90;;;;;;5023599;28;20999;-62
2022/09/02 06:31:21;;;;;;;0.52;0.43;;;16.00;99.90;;;;;;5025640;28;20509;-62
2022/09/02 06:33:51;;;;;;;0.60;0.60;;;16.20;99.90;;;;;;5015405;28;20432;-62
2022/09/02 06:36:20;;;;;;;0.30;0.30;;;16.60;99.90;;;;;;5021552;28;20494;-62
2022/09/02 06:38:55;;;;;;;0.40;0.40;;;16.70;99.90;;;;;;5023242;28;20431;-62
2022/09/02 06:41:27;;;;;;;0.40;0.40;;;17.00;99.90;;;;;;5019328;28;20511;-62
2022/09/02 06:43:59;;;;;;;0.50;0.50;;;17.20;99.90;;;;;;5018683;28;20436;-62
2022/09/02 06:46:29;;;;;;;0.50;0.50;;;17.50;99.90;;;;;;5019494;28;20492;-62
2022/09/02 06:48:56;;;;;;;0.50;0.50;;;17.90;99.90;;;;;;5025469;28;20443;-62
2022/09/02 06:51:29;;;;;;;0.65;0.40;;;18.10;99.90;;;;;;5020973;28;20466;-61
2022/09/02 06:53:57;;;;;;;0.45;0.45;;;18.30;99.90;;;;;;5024628;28;20518;-61
2022/09/02 06:56:26;;;;;;;0.40;0.40;;;18.40;99.90;;;;;;5018948;28;20998;-61
2022/09/02 06:58:54;;;;;;;0.50;0.50;;;18.50;99.90;;;;;;5019684;28;20432;-61
2022/09/02 07:01:23;;;;;;;0.50;0.50;;;19.10;99.90;;;;;;5021434;28;20443;-61
2022/09/02 07:06:48;;;;;;;0.40;0.40;;;20.50;99.90;;;;;;5022766;28;20786;-62
2022/09/02 07:09:18;;;;;;;0.40;0.40;;;20.80;99.20;;;;;;5016170;28;20439;-61
2022/09/02 07:11:46;;;;;;;0.50;0.50;;;20.80;98.80;;;;;;5018408;28;20520;-62
2022/09/02 07:14:15;;;;;;;0.30;0.30;;;20.90;98.80;;;;;;5022264;28;20446;-62
2022/09/02 07:16:48;;;;;;;0.50;0.50;;;21.00;98.50;;;;;;5020937;28;20426;-62
2022/09/02 07:19:24;;;;;;;0.45;0.45;;;21.10;98.30;;;;;;5018723;28;20434;-61
2022/09/02 07:21:53;;;;;;;0.40;0.40;;;21.00;98.30;;;;;;5017958;28;20430;-61
2022/09/02 07:24:20;;;;;;;0.43;0.43;;;20.90;98.40;;;;;;5018788;28;20925;-61
2022/09/02 07:26:48;;;;;;;0.57;0.57;;;20.80;98.20;;;;;;5021872;28;20523;-62
2022/09/02 07:29:15;;;;;;;0.43;0.43;;;21.00;98.30;;;;;;5021720;28;20458;-62
2022/09/02 07:31:45;;;;;;;0.50;0.50;;;21.40;98.00;;;;;;5014606;28;20440;-61
2022/09/02 07:34:13;;;;;;;0.40;0.40;;;21.80;97.60;;;;;;5020942;28;20518;-61
2022/09/02 07:36:41;;;;;;;0.40;0.40;;;22.00;97.10;;;;;;5022611;28;20517;-61
2022/09/02 07:39:10;;;;;;;0.40;0.40;;;21.90;96.90;;;;;;5024429;28;20436;-62
2022/09/02 07:41:38;;;;;;;0.32;0.32;;;22.00;97.10;;;;;;5024308;28;20476;-61
2022/09/02 07:44:06;;;;;;;0.43;0.43;;;22.10;97.10;;;;;;5026780;28;20526;-61
2022/09/02 07:46:34;;;;;;;0.50;0.50;;;22.50;96.80;;;;;;5020709;28;20439;-62
2022/09/02 07:49:06;;;;;;;0.50;0.50;;;22.90;96.60;;;;;;5028029;28;20483;-62
2022/09/02 07:51:37;;;;;;;0.43;0.43;;;22.80;95.80;;;;;;5024911;28;20446;-62
2022/09/02 07:54:09;;;;;;;0.50;0.50;;;22.10;96.40;;;;;;5024049;28;20520;-61
2022/09/02 07:56:36;;;;;;;0.30;0.30;;;22.30;96.20;;;;;;5024218;28;20932;-62
2022/09/02 07:59:04;;;;;;;0.52;0.52;;;22.50;96.40;;;;;;5023573;28;20589;-61
2022/09/02 08:01:31;;;;;;;0.40;0.40;;;22.80;96.40;;;;;;5027420;28;20426;-61
2022/09/02 08:03:58;;;;;;;0.43;0.40;;;23.00;95.50;;;;;;5021192;28;20444;-61
2022/09/02 08:06:32;;;;;;;0.50;0.50;;;22.40;95.70;;;;;;5029422;28;20440;-62
2022/09/02 08:09:05;;;;;;;0.50;0.50;;;22.60;95.70;;;;;;5023607;28;20518;-61
2022/09/02 08:11:38;;;;;;;0.45;0.45;;;22.80;95.60;;;;;;5027233;28;21461;-62
2022/09/02 08:14:12;;;;;;;0.40;0.40;;;22.90;95.50;;;;;;5027825;28;20518;-60
2022/09/02 08:16:43;;;;;;;0.40;0.40;;;23.10;95.80;;;;;;5024737;28;20546;-61
2022/09/02 08:19:11;;;;;;;0.60;0.60;;;23.80;95.40;;;;;;5023985;28;20437;-61
2022/09/02 08:21:40;;;;;;;0.30;0.30;;;23.90;95.10;;;;;;5021866;28;20458;-60
2022/09/02 08:24:08;;;;;;;0.40;0.40;;;24.00;94.60;;;;;;5023727;28;20438;-61
2022/09/02 08:26:38;;;;;;;0.43;0.43;;;24.30;95.30;;;;;;5025694;28;20432;-62
2022/09/02 08:29:08;;;;;;;0.40;0.40;;;24.60;94.20;;;;;;5022051;28;20431;-61
2022/09/02 08:31:37;;;;;;;0.60;0.60;;;24.20;94.30;;;;;;5022099;28;20438;-61
2022/09/02 08:34:04;;;;;;;1.00;0.40;;;24.10;94.40;;;;;;5023109;28;20439;-61
2022/09/02 08:36:30;;;;;;;1.20;0.43;;;24.30;94.20;;;;;;5016777;28;20512;-61
2022/09/02 08:38:57;;;;;;;0.37;0.37;;;24.10;93.90;;;;;;5021311;28;20427;-61
2022/09/02 08:41:30;;;;;;;0.40;0.40;;;24.40;93.70;;;;;;5023313;28;20443;-60
2022/09/02 08:43:59;;;;;;;0.40;0.40;;;23.90;93.80;;;;;;5024002;28;20433;-61
2022/09/02 08:46:30;;;;;;;0.32;0.32;;;23.50;94.40;;;;;;5021783;28;20866;-61
2022/09/02 08:49:07;;;;;;;0.50;0.50;;;23.10;94.20;;;;;;5021619;28;20789;-61
2022/09/02 08:51:56;;;;;;;0.30;0.30;;;23.30;94.90;;;;;;5026624;28;21004;-61
2022/09/02 08:54:42;;;;;;;0.40;0.40;;;23.90;94.00;;;;;;5017127;28;20940;-60
2022/09/02 08:57:10;;;;;;;0.30;0.30;;;24.10;93.70;;;;;;5023080;28;20464;-61
2022/09/02 08:59:38;;;;;;;0.50;0.50;;;23.30;93.80;;;;;;5026230;28;20781;-61
2022/09/02 09:02:24;;;;;;;0.38;0.38;;;23.40;93.70;;;;;;5028990;28;20458;-62
2022/09/02 09:05:17;;;;;;;0.30;0.30;;;23.80;93.60;;;;;;5027604;28;20527;-61
2022/09/02 09:08:02;;;;;;;0.30;0.30;;;23.90;93.20;;;;;;5020098;28;20940;-61
2022/09/02 09:10:59;;;;;;;0.40;0.40;;;24.30;92.70;;;;;;5051405;28;20431;-61
2022/09/02 09:13:29;;;;;;;0.50;0.50;;;24.30;92.80;;;;;;5023436;28;20426;-61
2022/09/02 09:16:18;;;;;;;0.38;0.38;;;24.30;92.40;;;;;;5026794;28;20439;-61
2022/09/02 09:19:06;;;;;;;0.30;0.30;;;24.00;92.50;;;;;;5015995;28;20430;-61
2022/09/02 09:21:34;;;;;;;0.40;0.40;;;23.90;92.90;;;;;;5010801;28;20618;-61
2022/09/02 09:24:18;;;;;;;0.50;0.50;;;23.90;93.00;;;;;;5019734;28;20496;-61
2022/09/02 09:26:46;;;;;;;0.30;0.30;;;24.30;92.20;;;;;;5018264;28;20435;-62
2022/09/02 09:29:15;;;;;;;0.35;0.35;;;24.30;92.00;;;;;;5022752;28;20510;-61
2022/09/02 09:31:52;;;;;;;0.40;0.40;;;24.20;92.10;;;;;;5024276;28;20430;-61
2022/09/02 09:34:22;;;;;;;0.30;0.30;;;24.10;92.10;;;;;;5026218;28;20438;-60
2022/09/02 09:36:54;;;;;;;0.43;0.43;;;23.50;91.50;;;;;;5028993;28;20446;-61
2022/09/02 09:39:28;;;;;;;0.40;0.40;;;23.70;91.50;;;;;;5023598;28;20431;-61
2022/09/02 09:42:01;;;;;;;0.40;0.40;;;24.10;92.00;;;;;;5025717;28;20439;-61
2022/09/02 09:44:39;;;;;;;0.30;0.30;;;24.40;91.30;;;;;;5029405;28;20842;-61
2022/09/02 09:47:24;;;;;;;0.20;0.20;;;24.90;91.20;;;;;;5029286;28;20838;-61
2022/09/02 09:50:10;;;;;;;0.67;0.30;;;25.20;90.20;;;;;;5028343;28;20435;-61
2022/09/02 09:52:39;;;;;;;0.30;0.30;;;24.70;85.00;;;;;;5018158;28;20907;-61
2022/09/02 09:55:19;;;;;;;0.22;0.22;;;24.80;88.30;;;;;;5017462;28;20447;-61
2022/09/02 09:58:06;;;;;;;0.37;0.37;;;24.80;88.50;;;;;;5030676;28;20443;-62
2022/09/02 10:00:33;;;;;;;0.30;0.30;;;25.00;88.70;;;;;;5029120;28;21056;-61
2022/09/02 10:03:04;;;;;;;0.32;0.32;;;24.50;89.70;;;;;;5010929;28;20900;-61
2022/09/02 10:05:39;;;;;;;0.40;0.40;;;24.30;89.40;;;;;;5029709;28;20525;-61
2022/09/02 10:08:14;;;;;;;0.30;0.30;;;24.40;90.10;;;;;;5029457;28;21014;-62
2022/09/02 10:11:20;;;;;;;0.30;0.30;;;24.80;90.20;;;;;;5029111;28;20529;-61
2022/09/02 10:13:47;;;;;;;1.00;0.30;;;25.70;88.70;;;;;;5024882;28;20432;-62
2022/09/02 10:16:31;;;;;;;0.40;0.40;;;25.70;86.80;;;;;;5025545;28;20439;-62
2022/09/02 10:19:04;;;;;;;0.40;0.40;;;25.30;88.20;;;;;;5018929;28;20440;-62
2022/09/02 10:22:03;;;;;;;0.40;0.40;;;24.70;85.30;;;;;;5028261;28;20430;-62
2022/09/02 10:24:50;;;;;;;0.20;0.20;;;24.80;83.40;;;;;;5019425;28;20433;-62
2022/09/02 10:27:32;;;;;;;0.45;0.30;;;25.10;85.80;;;;;;5024463;28;20467;-62
2022/09/02 10:30:05;;;;;;;0.30;0.30;;;25.50;84.30;;;;;;5012928;28;20508;-63
2022/09/02 10:32:41;;;;;;;0.38;0.38;;;25.90;83.60;;;;;;5028299;28;20967;-62
2022/09/02 10:35:25;;;;;;;0.30;0.30;;;25.90;83.50;;;;;;5026528;28;20522;-62
2022/09/02 10:38:25;;;;;;;0.40;0.40;;;26.20;84.20;;;;;;5024379;28;20437;-61
2022/09/02 10:41:10;;;;;;;0.30;0.30;;;26.10;81.80;;;;;;5028810;28;20514;-62
2022/09/02 10:43:58;;;;;;;0.20;0.20;;;25.80;79.90;;;;;;5024679;28;20518;-62
2022/09/02 10:46:53;;;;;;;0.30;0.30;;;25.10;82.60;;;;;;5020101;28;20441;-62
2022/09/02 10:49:37;;;;;;;0.40;0.40;;;25.20;81.60;;;;;;5029792;28;20458;-62
2022/09/02 10:52:21;;;;;;;0.28;0.28;;;25.10;81.40;;;;;;5018746;28;20493;-61
2022/09/02 10:55:36;;;;;;;0.90;0.45;;;25.40;83.20;;;;;;5010869;28;20441;-62
2022/09/02 10:58:18;;;;;;;0.32;0.32;;;25.30;83.10;;;;;;4996787;28;20428;-63
2022/09/02 11:00:50;;;;;;;0.30;0.30;;;25.90;83.40;;;;;;5027684;28;20518;-63
2022/09/02 11:03:53;;;;;;;0.32;0.32;;;26.30;81.70;;;;;;5021407;28;20493;-64
2022/09/02 11:06:34;;;;;;;0.20;0.20;;;26.20;81.00;;;;;;5016864;28;20440;-62
2022/09/02 11:09:27;;;;;;;0.20;0.20;;;26.20;82.30;;;;;;5018346;28;20471;-62
2022/09/02 11:12:08;;;;;;;0.32;0.30;;;25.60;82.10;;;;;;5025797;28;20437;-63
2022/09/02 11:14:39;;;;;;;0.30;0.30;;;25.30;81.80;;;;;;5029394;28;20458;-63
2022/09/02 11:17:43;;;;;;;0.40;0.40;;;25.50;82.70;;;;;;5020705;28;20432;-63
2022/09/02 11:20:43;;;;;;;0.20;0.20;;;25.50;83.50;;;;;;5029806;28;20507;-63
2022/09/02 11:23:19;;;;;;;1.27;0.30;;;26.20;82.60;;;;;;5025651;28;20518;-62
2022/09/02 11:25:51;;;;;;;0.30;0.30;;;26.60;81.60;;;;;;5029074;28;20448;-65
2022/09/02 11:28:35;;;;;;;1.10;0.50;;;26.10;82.40;;;;;;5016832;28;20440;-64
2022/09/02 11:31:06;;;;;;;0.30;0.30;;;25.70;82.40;;;;;;5015755;28;20438;-61
2022/09/02 11:33:59;;;;;;;0.30;0.30;;;25.00;83.50;;;;;;5020309;28;20436;-60
2022/09/02 11:36:39;;;;;;;0.33;0.33;;;24.90;84.40;;;;;;5020043;28;20430;-62
2022/09/02 11:39:09;;;;;;;0.38;0.35;;;24.90;84.30;;;;;;5024613;28;20520;-61
2022/09/02 11:41:55;;;;;;;0.30;0.30;;;24.60;84.30;;;;;;5031708;28;20492;-61
2022/09/02 11:44:52;;;;;;;0.30;0.30;;;24.90;85.70;;;;;;5027813;28;20437;-61
2022/09/02 11:47:29;;;;;;;0.30;0.30;;;24.80;85.20;;;;;;5030954;28;20437;-61
2022/09/02 11:50:14;;;;;;;0.40;0.30;;;25.40;83.80;;;;;;5020883;28;20586;-61
2022/09/02 11:53:19;;;;;;;0.30;0.30;;;25.80;84.00;;;;;;5021939;28;20430;-61
2022/09/02 11:56:10;;;;;;;0.30;0.30;;;26.10;84.40;;;;;;5026595;28;21012;-61
2022/09/02 11:58:51;;;;;;;0.90;0.40;;;26.00;82.60;;;;;;5027054;28;20434;-62
2022/09/02 12:01:39;;;;;;;0.30;0.30;;;26.30;82.40;;;;;;5025582;28;21100;-61
2022/09/02 12:04:12;;;;;;;0.20;0.20;;;26.40;82.40;;;;;;5027393;28;20467;-61
2022/09/02 12:07:05;;;;;;;0.40;0.40;;;25.60;82.30;;;;;;5031338;28;20501;-61
2022/09/02 12:09:50;;;;;;;0.45;0.38;;;25.70;82.60;;;;;;5028444;28;20437;-61
2022/09/02 12:12:37;;;;;;;0.28;0.28;;;25.40;82.40;;;;;;5029893;28;20431;-61
2022/09/02 12:15:04;;;;;;;0.20;0.20;;;25.40;83.10;;;;;;5027433;28;20760;-60
2022/09/02 12:17:48;;;;;;;0.70;0.37;;;25.90;82.40;;;;;;5022878;28;20466;-60
2022/09/02 12:20:37;;;;;;;0.20;0.20;;;26.00;81.30;;;;;;5021657;28;20500;-61
2022/09/02 12:23:07;;;;;;;0.40;0.40;;;26.20;80.90;;;;;;5027721;28;20423;-61
2022/09/02 12:25:46;;;;;;;0.30;0.30;;;26.60;82.00;;;;;;5029677;28;20458;-61
2022/09/02 12:28:29;;;;;;;0.22;0.22;;;26.60;80.50;;;;;;5026958;28;20899;-62
2022/09/02 12:31:06;;;;;;;0.30;0.30;;;26.60;80.10;;;;;;5011396;28;20498;-61
2022/09/02 12:33:50;;;;;;;0.30;0.30;;;26.70;80.60;;;;;;5022178;28;20517;-62
2022/09/02 12:36:41;;;;;;;0.45;0.38;;;26.90;80.30;;;;;;5026654;28;20439;-61
2022/09/02 12:39:22;;;;;;;0.40;0.40;;;26.40;79.40;;;;;;5022439;28;20491;-62
2022/09/02 12:42:16;;;;;;;0.30;0.30;;;26.20;80.20;;;;;;5029145;28;21109;-62
2022/09/02 12:45:13;;;;;;;0.40;0.40;;;26.20;79.40;;;;;;5024365;28;20437;-62
2022/09/02 12:47:59;;;;;;;0.30;0.30;;;26.60;78.60;;;;;;5027859;28;20517;-62
2022/09/02 12:50:49;;;;;;;0.28;0.28;;;27.30;77.70;;;;;;5022412;28;20846;-62
2022/09/02 12:53:22;;;;;;;0.40;0.40;;;27.60;77.20;;;;;;5026866;28;20538;-62
2022/09/02 12:56:05;;;;;;;0.30;0.30;;;27.40;76.90;;;;;;5023804;28;20470;-62
2022/09/02 12:58:40;;;;;;;0.30;0.30;;;27.00;77.00;;;;;;5029129;28;20484;-61
2022/09/02 13:01:12;;;;;;;0.37;0.30;;;27.20;77.80;;;;;;5028917;28;20439;-63
2022/09/02 13:04:07;;;;;;;0.20;0.20;;;27.60;76.80;;;;;;5027711;28;20509;-62
2022/09/02 13:06:52;;;;;;;0.30;0.30;;;27.60;77.10;;;;;;5030467;28;20438;-62
2022/09/02 13:09:38;;;;;;;0.20;0.20;;;27.30;77.40;;;;;;5025674;28;20793;-62
2022/09/02 13:12:39;;;;;;;0.30;0.30;;;27.00;77.50;;;;;;5026669;28;20527;-62
2022/09/02 13:15:24;;;;;;;0.30;0.30;;;27.20;77.40;;;;;;5022450;28;20526;-61
2022/09/02 13:18:39;;;;;;;0.30;0.30;;;27.20;76.00;;;;;;5023860;28;20518;-61
2022/09/02 13:21:41;;;;;;;0.20;0.20;;;26.90;75.80;;;;;;5027805;28;20430;-62
2022/09/02 13:24:39;;;;;;;0.40;0.40;;;27.20;75.50;;;;;;5026189;28;20497;-62
2022/09/02 13:27:33;;;;;;;0.30;0.30;;;27.30;75.00;;;;;;5027683;28;20430;-63